Westchester County Airport
KHPN : now visible

Airfield :











YOU CAN JOIN US ON...

 
LOGIN :

Register | Disclaimer

   EN    FR    IT 

 









Legend :    VFR   Marginal VFR   IFR   Intensive IFR   Very Intensive IFR
Visi :
Ceiling :
>= 8 km
>= 3000ft
5 to 8 km
1000 to 3000 ft
1500m to 5 km
500 to 1000 ft
800 to 1500m
200 to 500 ft
< 800m
< 200 ft
Symbols :   Thunderstorms  Fog  Heavy snow  Heavy precipitations  Wind > 20 kt






- Airport Elevation : 439 ft
- IATA code : HPN


KHPN - Westchester County

CURRENT METAR :
  • 212356Z 32007KT 10SM CLR 08/M04 A2992 RMK AO2 SLP136 T00831039 10100 20083 51007

EXPIRED METARs :
  • 212256Z 31012G17KT 10SM CLR 09/M04 A2991 RMK AO2 SLP132 T00891044
  • 212156Z 30013KT 10SM FEW060 09/M05 A2991 RMK AO2 SLP132 T00891050
  • 212056Z 30010KT 10SM SCT060 09/M04 A2990 RMK AO2 SLP129 T00941044 56021
  • 211956Z 32013KT 280V340 10SM SCT060 09/M04 A2992 RMK AO2 SLP134 T00941039

TAF KHPN
Valid from the 22 at 00:00 until the 23 at 00:00 UTC


212333Z 2200/2224 31007KT P6SM FEW060 BKN250
FM220400 32007KT P6SM SCT250
FM221300 33009KT P6SM SKC
FM222300 33005KT P6SM FEW060 AMD NOT SKED
KZBW FIR / North America



MET'MAP, your aeronautical weather chart ! - Copyright ORBIFLY December 2007 - Disclaimer

ORBIFLY MET'MAP TEAM :

Programming & Development : Alexandra Zaïnal
Original concept : Baudouin d'Aumeries
Technical & hardware support : Manuel Goepfert
Assistance : Marc-Olivier Méhu




SOURCES & CREDITS :

   NOAA       Earth
Advisory